Latest Weather Observations for Mount Lofty

IDS60801

Issued at 8:31 pm CST Thursday 3 September 2015 (issued every 30 minutes, with the page automatically refreshed every 10 minutes)

About weather observations | Map of weather stations | Latest weather observations for SA | Other Formats
Station Details ID: 023842 Name: MOUNT LOFTY Lat: -34.98 Lon: 138.71 Height: 685.0 m
Data from the previous 72 hours. | See also: Recent months at Mount Lofty
Date/Time
CST
Temp
°C
App
Temp
°C
Dew
Point
Rel
Hum
%
Delta-T
°C
Wind Press
QNH
hPa
Press
MSL
hPa
Rain
since 9 am
mm
Dir
 
Spd
km/h
Gust
km/h
Spd
kts
Gust
kts
03/08:30pm 6.4 4.3 6.0 97 0.2 S 6 9 3 5 - - 0.6
03/08:00pm 6.5 4.5 6.1 97 0.2 S 6 9 3 5 - - 0.6
03/07:30pm 6.6 4.6 6.3 98 0.1 S 6 15 3 8 - - 0.6
03/07:00pm 6.8 4.9 6.5 98 0.1 SSE 6 9 3 5 - - 0.6
03/06:30pm 6.8 4.8 6.4 97 0.2 S 6 13 3 7 - - 0.6
03/06:00pm 7.0 4.9 6.6 97 0.2 SSE 7 15 4 8 - - 0.6
03/05:30pm 7.3 5.3 6.9 97 0.2 S 7 19 4 10 - - 0.6
03/05:00pm 7.6 5.8 7.2 97 0.2 S 6 13 3 7 - - 0.6
03/04:30pm 8.0 6.6 7.4 96 0.3 SSE 4 15 2 8 - - 0.6
03/04:00pm 8.3 6.6 7.7 96 0.3 SSE 6 13 3 7 - - 0.6
03/03:30pm 8.3 6.4 7.7 96 0.3 SE 7 13 4 7 - - 0.6
03/03:00pm 8.5 6.6 7.6 94 0.4 SSE 7 19 4 10 - - 0.4
03/02:30pm 8.8 6.6 8.0 95 0.4 SSE 9 20 5 11 - - 0.4
03/02:00pm 8.8 7.1 8.2 96 0.3 SSE 7 17 4 9 - - 0.4
03/01:30pm 8.4 6.3 8.1 98 0.1 S 9 26 5 14 - - 0.4
03/01:00pm 8.4 6.3 8.1 98 0.1 SSE 9 22 5 12 - - 0.4
03/12:30pm 8.3 6.5 8.0 98 0.1 SSE 7 22 4 12 - - 0.4
03/12:00pm 8.3 6.1 8.0 98 0.1 S 9 24 5 13 - - 0.4
03/11:30am 8.1 5.5 7.8 98 0.1 SSE 11 30 6 16 - - 0.4
03/11:00am 8.0 5.8 7.7 98 0.1 SSE 9 24 5 13 - - 0.2
03/10:30am 7.5 5.5 7.2 98 0.1 SE 7 26 4 14 - - 0.2
03/10:00am 8.1 6.3 7.8 98 0.1 SSE 7 20 4 11 - - 0.0
03/09:30am 8.2 6.1 8.1 99 0.0 SSE 9 24 5 13 - - 0.0
03/09:00am 7.7 5.1 7.6 99 0.0 S 11 26 6 14 - - 18.4
03/08:30am 7.6 4.2 7.5 99 0.0 S 15 32 8 17 - - 18.4
03/08:00am 7.5 4.0 7.4 99 0.0 S 15 28 8 15 - - 18.2
03/07:30am 7.4 4.3 7.3 99 0.0 S 13 33 7 18 - - 18.2
03/07:00am 7.2 4.1 7.1 99 0.0 S 13 26 7 14 - - 18.2
03/06:30am 7.2 4.4 7.1 99 0.0 SSW 11 24 6 13 - - 18.2
03/06:00am 7.2 4.1 7.1 99 0.0 SSW 13 33 7 18 - - 18.2
03/05:30am 7.2 4.4 7.1 99 0.0 SW 11 28 6 15 - - 18.0
03/05:00am 6.9 4.8 6.8 99 0.0 WSW 7 17 4 9 - - 17.6
03/04:30am 6.8 4.3 6.7 99 0.0 WSW 9 19 5 10 - - 17.6
03/04:00am 6.6 4.1 6.5 99 0.0 SW 9 20 5 11 - - 17.6
03/03:30am 6.5 4.0 6.4 99 0.0 SSW 9 19 5 10 - - 17.6
03/03:00am 6.3 3.7 6.2 99 0.0 SSW 9 19 5 10 - - 17.6
03/02:30am 6.1 3.4 5.8 98 0.1 SSW 9 20 5 11 - - 17.4
03/02:00am 5.9 3.2 5.6 98 0.1 SW 9 19 5 10 - - 17.4
03/01:30am 6.3 3.7 6.0 98 0.1 SSW 9 17 5 9 - - 17.4
03/01:00am 6.1 3.4 5.8 98 0.1 WSW 9 17 5 9 - - 17.4
03/12:30am 6.1 3.8 5.8 98 0.1 SSW 7 15 4 8 - - 17.4
03/12:00am 6.2 4.0 6.1 99 0.0 SE 7 17 4 9 - - 17.4
 
Date/Time
CST
Temp
°C
App
Temp
°C
Dew
Point
Rel
Hum
%
Delta-T
°C
Wind Press
QNH
hPa
Press
MSL
hPa
Rain
since 9 am
mm
Dir
 
Spd
km/h
Gust
km/h
Spd
kts
Gust
kts
02/11:30pm 6.4 3.8 6.3 99 0.0 SE 9 20 5 11 - - 17.4
02/11:00pm 6.3 3.0 6.2 99 0.0 SSE 13 28 7 15 - - 17.4
02/10:30pm 6.1 3.5 6.0 99 0.0 SSE 9 19 5 10 - - 17.4
02/10:00pm 5.9 2.4 5.6 98 0.1 S 13 33 7 18 - - 17.4
02/09:30pm 5.9 2.4 5.6 98 0.1 SSE 13 22 7 12 - - 17.2
02/09:00pm 5.9 2.8 5.6 98 0.1 SSE 11 26 6 14 - - 17.2
02/08:30pm 5.9 3.6 5.6 98 0.1 SE 7 22 4 12 - - 17.2
02/08:00pm 5.9 3.2 5.6 98 0.1 SSE 9 24 5 13 - - 17.2
02/07:30pm 6.2 3.6 5.9 98 0.1 SE 9 26 5 14 - - 16.6
02/07:00pm 6.0 3.7 5.7 98 0.1 SE 7 20 4 11 - - 15.6
02/06:30pm 6.1 4.0 5.8 98 0.1 SE 6 11 3 6 - - 15.2
02/06:00pm 6.2 4.1 5.9 98 0.1 SE 6 11 3 6 - - 15.0
02/05:30pm 6.5 4.3 6.2 98 0.1 ESE 7 13 4 7 - - 15.0
02/05:00pm 6.6 5.0 6.3 98 0.1 NNE 4 7 2 4 - - 15.0
02/04:30pm 6.6 4.6 6.3 98 0.1 N 6 15 3 8 - - 14.4
02/04:00pm 6.4 3.4 6.1 98 0.1 NNW 11 24 6 13 - - 13.4
02/03:30pm 5.9 2.1 5.6 98 0.1 NNW 15 24 8 13 - - 12.2
02/03:00pm 6.3 2.2 6.0 98 0.1 NNW 17 37 9 20 - - 11.4
02/02:30pm 6.3 2.2 6.0 98 0.1 NNW 17 35 9 19 - - 9.2
02/02:00pm 6.2 1.7 5.9 98 0.1 NW 19 33 10 18 - - 7.8
02/01:30pm 6.3 1.8 6.0 98 0.1 NW 19 32 10 17 - - 5.8
02/01:00pm 6.6 2.5 6.3 98 0.1 NW 17 30 9 16 - - 4.0
02/12:30pm 6.5 2.4 6.2 98 0.1 NW 17 32 9 17 - - 3.0
02/12:00pm 6.7 2.1 6.4 98 0.1 NW 20 37 11 20 - - 2.6
02/11:30am 6.3 2.5 6.0 98 0.1 NW 15 26 8 14 - - 2.6
02/11:00am 6.8 3.5 6.4 97 0.2 NNW 13 24 7 13 - - 0.2
02/10:30am 6.7 2.6 6.4 98 0.1 NNW 17 30 9 16 - - 0.0
02/10:00am 6.3 2.5 6.0 98 0.1 NW 15 22 8 12 - - 0.0
02/09:30am 6.0 0.8 5.7 98 0.1 NW 22 41 12 22 - - 0.0
02/09:00am 6.0 1.4 5.7 98 0.1 NNW 19 39 10 21 - - 11.2
02/08:30am 5.8 1.0 5.5 98 0.1 NNW 20 41 11 22 - - 11.2
02/08:00am 5.7 0.9 5.4 98 0.1 NW 20 37 11 20 - - 11.2
02/07:30am 5.6 0.3 5.2 97 0.2 NW 22 39 12 21 - - 11.2
02/07:00am 5.6 0.3 5.2 97 0.2 NW 22 43 12 23 - - 11.2
02/06:30am 5.7 1.0 5.3 97 0.2 NW 19 32 10 17 - - 11.2
02/06:00am 5.7 0.5 5.3 97 0.2 NW 22 37 12 20 - - 11.2
02/05:30am 5.9 1.0 5.3 96 0.3 NW 20 43 11 23 - - 11.2
02/05:00am 6.1 1.3 4.9 92 0.5 NNW 19 35 10 19 - - 11.2
02/04:30am 6.2 1.1 5.8 97 0.2 NW 22 43 12 23 - - 10.8
02/04:00am 6.3 2.2 6.0 98 0.1 NNW 17 32 9 17 - - 10.8
02/03:30am 6.4 1.7 6.1 98 0.1 NW 20 35 11 19 - - 10.6
02/03:00am 6.4 1.3 6.1 98 0.1 NW 22 35 12 19 - - 9.8
02/02:30am 6.5 1.4 6.2 98 0.1 NW 22 43 12 23 - - 9.2
02/02:00am 6.7 0.9 6.4 98 0.1 NW 26 43 14 23 - - 8.8
02/01:32am 7.0 0.9 6.7 98 0.1 NNW 28 52 15 28 - - 8.2
02/01:30am 7.0 1.3 6.7 98 0.1 NNW 26 52 14 28 - - 8.2
02/01:00am 6.8 2.2 6.5 98 0.1 NNW 20 37 11 20 - - 7.8
02/12:30am 6.4 1.9 6.0 97 0.2 NNW 19 32 10 17 - - 7.4
02/12:00am 6.8 2.1 6.2 96 0.3 NW 20 37 11 20 - - 4.2
 
Date/Time
CST
Temp
°C
App
Temp
°C
Dew
Point
Rel
Hum
%
Delta-T
°C
Wind Press
QNH
hPa
Press
MSL
hPa
Rain
since 9 am
mm
Dir
 
Spd
km/h
Gust
km/h
Spd
kts
Gust
kts
01/11:30pm 7.9 2.7 5.5 85 1.1 NNW 22 44 12 24 - - 1.8
01/11:00pm 8.6 4.1 6.1 84 1.2 NNW 19 30 10 16 - - 1.2
01/10:30pm 9.9 5.7 5.5 74 2.1 NNW 17 35 9 19 - - 0.6
01/10:00pm 10.9 6.8 4.4 64 3.0 NNE 15 28 8 15 - - 0.0
01/09:30pm 11.0 7.0 2.8 57 3.7 NNE 13 28 7 15 - - 0.0
01/09:00pm 11.1 6.7 2.9 57 3.7 NNE 15 30 8 16 - - 0.0
01/08:30pm 11.1 6.9 1.9 53 4.1 NE 13 32 7 17 - - 0.0
01/08:00pm 11.6 8.1 1.5 50 4.4 NE 9 24 5 13 - - 0.0
01/07:30pm 11.7 7.8 1.4 49 4.5 NNE 11 26 6 14 - - 0.0
01/07:00pm 11.8 8.0 2.0 51 4.4 ENE 11 30 6 16 - - 0.0
01/06:30pm 11.5 8.2 2.5 54 4.1 NE 9 22 5 12 - - 0.0
01/06:00pm 11.6 8.0 2.9 55 4.0 NNE 11 24 6 13 - - 0.0
01/05:30pm 12.0 7.9 2.5 52 4.3 N 13 33 7 18 - - 0.0
01/05:00pm 11.9 8.7 3.2 55 4.0 N 9 19 5 10 - - 0.0
01/04:30pm 12.0 8.4 3.0 54 4.1 NNW 11 20 6 11 - - 0.0
01/04:00pm 12.2 7.6 1.8 49 4.6 NNW 15 33 8 18 - - 0.0
01/03:30pm 12.3 8.4 3.3 54 4.2 NNW 13 24 7 13 - - 0.0
01/03:00pm 12.9 9.2 4.3 56 4.1 NW 13 24 7 13 - - 0.0
01/02:30pm 12.6 8.8 3.8 55 4.1 NW 13 22 7 12 - - 0.0
01/02:00pm 13.2 9.4 3.8 53 4.4 NW 13 20 7 11 - - 0.0
01/01:30pm 13.3 8.7 3.7 52 4.5 NW 17 28 9 15 - - 0.0
01/01:00pm 13.7 10.3 4.0 52 4.6 NNW 11 24 6 13 - - 0.0
01/12:30pm 14.2 10.9 4.5 52 4.7 NNW 11 20 6 11 - - 0.0
01/12:00pm 14.2 10.4 3.9 50 4.9 NNW 13 26 7 14 - - 0.0
01/11:30am 13.2 9.5 2.4 48 4.9 NNW 11 22 6 12 - - 0.0
01/11:00am 13.3 8.9 2.5 48 4.9 NW 15 24 8 13 - - 0.0
01/10:30am 12.5 8.0 2.4 50 4.6 NNW 15 26 8 14 - - 0.0
01/10:00am 12.3 7.9 2.5 51 4.4 NNW 15 28 8 15 - - 0.0
01/09:30am 11.9 7.9 2.6 53 4.2 NW 13 30 7 16 - - 0.0
01/09:00am 11.7 8.0 2.2 52 4.3 NNW 11 19 6 10 - - 0.6
01/08:30am 11.9 7.8 2.4 52 4.3 NNW 13 20 7 11 - - 0.6
01/08:00am 11.3 6.8 2.3 54 4.0 NNW 15 28 8 15 - - 0.6
01/07:30am 9.4 4.9 5.9 79 1.7 NNW 19 30 10 16 - - 0.6
01/07:00am 10.1 5.3 2.5 59 3.4 NW 17 28 9 15 - - 0.2
01/06:30am 10.0 5.8 3.7 65 2.9 NW 15 26 8 14 - - 0.2
01/06:00am 10.9 5.6 1.7 53 4.0 NW 19 28 10 15 - - 0.0
01/05:30am 11.1 5.7 1.4 51 4.2 NW 19 30 10 16 - - 0.0
01/05:00am 10.8 5.8 1.4 52 4.1 NW 17 26 9 14 - - 0.0
01/04:30am 10.7 6.1 1.5 53 4.0 NW 15 26 8 14 - - 0.0
01/04:00am 10.8 6.2 1.6 53 4.0 NW 15 26 8 14 - - 0.0
01/03:30am 11.1 5.8 1.6 52 4.2 NW 19 30 10 16 - - 0.0
01/03:00am 11.1 6.1 1.6 52 4.2 NNW 17 32 9 17 - - 0.0
01/02:30am 11.4 6.5 2.2 53 4.1 NNW 17 26 9 14 - - 0.0
01/02:00am 11.2 7.0 1.7 52 4.2 NNW 13 20 7 11 - - 0.0
01/01:30am 11.8 7.9 1.2 48 4.6 NNW 11 17 6 9 - - 0.0
01/01:00am 12.0 8.5 1.1 47 4.8 N 9 17 5 9 - - 0.0
01/12:30am 11.9 8.4 1.3 48 4.7 N 9 17 5 9 - - 0.0
01/12:00am 11.6 8.2 1.8 51 4.3 NNE 9 13 5 7 - - 0.0
 
Date/Time
CST
Temp
°C
App
Temp
°C
Dew
Point
Rel
Hum
%
Delta-T
°C
Wind Press
QNH
hPa
Press
MSL
hPa
Rain
since 9 am
mm
Dir
 
Spd
km/h
Gust
km/h
Spd
kts
Gust
kts
31/11:30pm 10.8 7.6 2.9 58 3.6 NE 9 20 5 11 - - 0.0
31/11:00pm 10.5 7.7 3.1 60 3.3 NE 7 13 4 7 - - 0.0
31/10:30pm 9.9 7.1 3.0 62 3.1 ENE 7 15 4 8 - - 0.0
31/10:00pm 9.5 6.9 3.0 64 2.9 ENE 6 9 3 5 - - 0.0
31/09:30pm 9.7 7.1 3.0 63 3.0 ENE 6 9 3 5 - - 0.0
31/09:00pm 10.6 7.8 3.2 60 3.4 NE 7 11 4 6 - - 0.0

Other Formats:

Comma delimited format used in spreadsheet applications
http://www.bom.gov.au/fwo/IDS60801/IDS60801.95678.axf

JavaScript Object Notation format (JSON) in row-major order
http://www.bom.gov.au/fwo/IDS60801/IDS60801.95678.json